sensor_id;sensor_type;location;lat;lon;timestamp;P1;durP1;ratioP1;P2;durP2;ratioP2
38529;SDS011;24301;54.332;48.386;2023-08-17T00:00:37;6.88;;;5.60;;
38529;SDS011;24301;54.332;48.386;2023-08-17T00:03:03;5.20;;;4.45;;
38529;SDS011;24301;54.332;48.386;2023-08-17T00:05:29;5.47;;;4.80;;
38529;SDS011;24301;54.332;48.386;2023-08-17T00:07:59;5.78;;;5.10;;
38529;SDS011;24301;54.332;48.386;2023-08-17T00:10:28;6.97;;;5.22;;
38529;SDS011;24301;54.332;48.386;2023-08-17T00:12:54;6.35;;;5.00;;
38529;SDS011;24301;54.332;48.386;2023-08-17T00:15:20;6.35;;;4.95;;
38529;SDS011;24301;54.332;48.386;2023-08-17T00:17:46;8.00;;;5.63;;
38529;SDS011;24301;54.332;48.386;2023-08-17T00:20:12;7.45;;;5.95;;
38529;SDS011;24301;54.332;48.386;2023-08-17T00:22:40;10.90;;;5.07;;
38529;SDS011;24301;54.332;48.386;2023-08-17T00:25:06;5.43;;;4.82;;
38529;SDS011;24301;54.332;48.386;2023-08-17T00:27:33;6.15;;;5.15;;
38529;SDS011;24301;54.332;48.386;2023-08-17T00:29:59;7.07;;;5.47;;
38529;SDS011;24301;54.332;48.386;2023-08-17T00:32:25;7.28;;;5.20;;
38529;SDS011;24301;54.332;48.386;2023-08-17T00:34:51;6.90;;;5.50;;
38529;SDS011;24301;54.332;48.386;2023-08-17T00:37:17;6.35;;;5.60;;
38529;SDS011;24301;54.332;48.386;2023-08-17T00:39:43;6.75;;;5.15;;
38529;SDS011;24301;54.332;48.386;2023-08-17T00:42:09;5.47;;;4.90;;
38529;SDS011;24301;54.332;48.386;2023-08-17T00:44:35;7.28;;;5.78;;
38529;SDS011;24301;54.332;48.386;2023-08-17T00:47:02;7.53;;;5.70;;
38529;SDS011;24301;54.332;48.386;2023-08-17T00:49:30;5.93;;;5.32;;
38529;SDS011;24301;54.332;48.386;2023-08-17T00:51:57;7.70;;;5.72;;
38529;SDS011;24301;54.332;48.386;2023-08-17T00:54:26;7.95;;;6.40;;
38529;SDS011;24301;54.332;48.386;2023-08-17T00:56:53;8.15;;;6.05;;
38529;SDS011;24301;54.332;48.386;2023-08-17T00:59:21;6.85;;;5.78;;
38529;SDS011;24301;54.332;48.386;2023-08-17T01:01:48;7.05;;;5.25;;
38529;SDS011;24301;54.332;48.386;2023-08-17T01:04:15;6.63;;;5.43;;
38529;SDS011;24301;54.332;48.386;2023-08-17T01:06:41;8.23;;;5.75;;
38529;SDS011;24301;54.332;48.386;2023-08-17T01:09:07;7.22;;;6.10;;
38529;SDS011;24301;54.332;48.386;2023-08-17T01:11:34;7.88;;;5.22;;
38529;SDS011;24301;54.332;48.386;2023-08-17T01:14:10;7.72;;;5.50;;
38529;SDS011;24301;54.332;48.386;2023-08-17T01:16:48;7.25;;;5.72;;
38529;SDS011;24301;54.332;48.386;2023-08-17T01:19:24;6.93;;;6.22;;
38529;SDS011;24301;54.332;48.386;2023-08-17T01:21:55;9.25;;;5.82;;
38529;SDS011;24301;54.332;48.386;2023-08-17T01:24:28;8.77;;;5.45;;
38529;SDS011;24301;54.332;48.386;2023-08-17T01:26:53;8.38;;;5.68;;
38529;SDS011;24301;54.332;48.386;2023-08-17T01:29:19;6.40;;;5.72;;
38529;SDS011;24301;54.332;48.386;2023-08-17T01:32:02;8.45;;;6.18;;
38529;SDS011;24301;54.332;48.386;2023-08-17T01:34:38;6.68;;;5.80;;
38529;SDS011;24301;54.332;48.386;2023-08-17T01:37:10;7.15;;;5.20;;
38529;SDS011;24301;54.332;48.386;2023-08-17T01:39:37;6.00;;;5.40;;
38529;SDS011;24301;54.332;48.386;2023-08-17T01:42:08;7.60;;;5.85;;
38529;SDS011;24301;54.332;48.386;2023-08-17T01:44:38;7.15;;;6.35;;
38529;SDS011;24301;54.332;48.386;2023-08-17T01:47:05;6.72;;;5.60;;
38529;SDS011;24301;54.332;48.386;2023-08-17T01:49:31;6.22;;;5.60;;
38529;SDS011;24301;54.332;48.386;2023-08-17T01:51:58;6.80;;;5.90;;
38529;SDS011;24301;54.332;48.386;2023-08-17T01:54:26;8.68;;;6.38;;
38529;SDS011;24301;54.332;48.386;2023-08-17T01:56:52;8.32;;;6.43;;
38529;SDS011;24301;54.332;48.386;2023-08-17T01:59:18;7.20;;;6.35;;
38529;SDS011;24301;54.332;48.386;2023-08-17T02:01:44;9.13;;;7.20;;
38529;SDS011;24301;54.332;48.386;2023-08-17T02:04:10;9.70;;;7.75;;
38529;SDS011;24301;54.332;48.386;2023-08-17T02:06:38;8.35;;;7.47;;
38529;SDS011;24301;54.332;48.386;2023-08-17T02:09:04;13.18;;;7.30;;
38529;SDS011;24301;54.332;48.386;2023-08-17T02:11:30;8.77;;;7.88;;
38529;SDS011;24301;54.332;48.386;2023-08-17T02:13:56;8.00;;;6.40;;
38529;SDS011;24301;54.332;48.386;2023-08-17T02:16:22;7.57;;;5.90;;
38529;SDS011;24301;54.332;48.386;2023-08-17T02:18:48;6.03;;;5.43;;
38529;SDS011;24301;54.332;48.386;2023-08-17T02:21:13;7.70;;;6.00;;
38529;SDS011;24301;54.332;48.386;2023-08-17T02:23:39;8.52;;;6.90;;
38529;SDS011;24301;54.332;48.386;2023-08-17T02:26:05;7.05;;;5.72;;
38529;SDS011;24301;54.332;48.386;2023-08-17T02:28:31;7.18;;;6.47;;
38529;SDS011;24301;54.332;48.386;2023-08-17T02:30:59;8.13;;;6.10;;
38529;SDS011;24301;54.332;48.386;2023-08-17T02:33:28;8.15;;;6.28;;
38529;SDS011;24301;54.332;48.386;2023-08-17T02:35:54;6.93;;;6.18;;
38529;SDS011;24301;54.332;48.386;2023-08-17T02:38:20;6.50;;;5.68;;
38529;SDS011;24301;54.332;48.386;2023-08-17T02:40:48;7.47;;;6.13;;
38529;SDS011;24301;54.332;48.386;2023-08-17T02:43:15;7.50;;;5.47;;
38529;SDS011;24301;54.332;48.386;2023-08-17T02:45:41;7.13;;;5.57;;
38529;SDS011;24301;54.332;48.386;2023-08-17T02:48:07;6.10;;;5.47;;
38529;SDS011;24301;54.332;48.386;2023-08-17T02:50:33;7.47;;;5.97;;
38529;SDS011;24301;54.332;48.386;2023-08-17T02:52:59;5.72;;;4.82;;
38529;SDS011;24301;54.332;48.386;2023-08-17T02:55:27;6.40;;;5.55;;
38529;SDS011;24301;54.332;48.386;2023-08-17T02:57:53;7.55;;;5.35;;
38529;SDS011;24301;54.332;48.386;2023-08-17T03:00:19;5.93;;;5.00;;
38529;SDS011;24301;54.332;48.386;2023-08-17T03:02:45;7.72;;;4.97;;
38529;SDS011;24301;54.332;48.386;2023-08-17T03:05:11;7.35;;;5.00;;
38529;SDS011;24301;54.332;48.386;2023-08-17T03:07:39;8.15;;;5.55;;
38529;SDS011;24301;54.332;48.386;2023-08-17T03:10:05;7.70;;;4.65;;
38529;SDS011;24301;54.332;48.386;2023-08-17T03:12:34;5.93;;;5.10;;
38529;SDS011;24301;54.332;48.386;2023-08-17T03:15:00;5.03;;;4.38;;
38529;SDS011;24301;54.332;48.386;2023-08-17T03:17:30;5.97;;;4.95;;
38529;SDS011;24301;54.332;48.386;2023-08-17T03:19:56;9.70;;;5.18;;
38529;SDS011;24301;54.332;48.386;2023-08-17T03:22:24;7.35;;;5.30;;
38529;SDS011;24301;54.332;48.386;2023-08-17T03:24:50;7.43;;;4.40;;
38529;SDS011;24301;54.332;48.386;2023-08-17T03:27:16;8.20;;;4.40;;
38529;SDS011;24301;54.332;48.386;2023-08-17T03:29:42;6.45;;;4.43;;
38529;SDS011;24301;54.332;48.386;2023-08-17T03:32:10;4.65;;;4.25;;
38529;SDS011;24301;54.332;48.386;2023-08-17T03:34:36;8.07;;;4.68;;
38529;SDS011;24301;54.332;48.386;2023-08-17T03:37:03;5.05;;;4.55;;
38529;SDS011;24301;54.332;48.386;2023-08-17T03:39:30;6.40;;;4.63;;
38529;SDS011;24301;54.332;48.386;2023-08-17T03:41:56;6.10;;;4.63;;
38529;SDS011;24301;54.332;48.386;2023-08-17T03:44:22;5.25;;;4.60;;
38529;SDS011;24301;54.332;48.386;2023-08-17T03:46:48;6.90;;;5.22;;
38529;SDS011;24301;54.332;48.386;2023-08-17T03:49:14;6.20;;;5.60;;
38529;SDS011;24301;54.332;48.386;2023-08-17T03:51:40;6.80;;;6.20;;
38529;SDS011;24301;54.332;48.386;2023-08-17T03:54:06;8.73;;;6.88;;
38529;SDS011;24301;54.332;48.386;2023-08-17T03:56:32;6.25;;;4.93;;
38529;SDS011;24301;54.332;48.386;2023-08-17T03:58:59;7.97;;;6.55;;
38529;SDS011;24301;54.332;48.386;2023-08-17T04:01:25;8.50;;;6.10;;
38529;SDS011;24301;54.332;48.386;2023-08-17T04:03:51;5.18;;;4.55;;
38529;SDS011;24301;54.332;48.386;2023-08-17T04:06:17;5.88;;;4.13;;
38529;SDS011;24301;54.332;48.386;2023-08-17T04:08:42;5.82;;;4.43;;
38529;SDS011;24301;54.332;48.386;2023-08-17T04:11:08;9.45;;;4.88;;
38529;SDS011;24301;54.332;48.386;2023-08-17T04:13:34;8.20;;;5.97;;
38529;SDS011;24301;54.332;48.386;2023-08-17T04:16:00;6.80;;;5.45;;
38529;SDS011;24301;54.332;48.386;2023-08-17T04:18:26;6.47;;;4.60;;
38529;SDS011;24301;54.332;48.386;2023-08-17T04:20:52;5.50;;;4.80;;
38529;SDS011;24301;54.332;48.386;2023-08-17T04:23:18;7.75;;;4.85;;
38529;SDS011;24301;54.332;48.386;2023-08-17T04:25:44;5.53;;;4.55;;
38529;SDS011;24301;54.332;48.386;2023-08-17T04:28:12;8.65;;;4.40;;
38529;SDS011;24301;54.332;48.386;2023-08-17T04:30:39;6.22;;;5.47;;
38529;SDS011;24301;54.332;48.386;2023-08-17T04:33:05;6.63;;;4.55;;
38529;SDS011;24301;54.332;48.386;2023-08-17T04:35:33;8.65;;;4.65;;
38529;SDS011;24301;54.332;48.386;2023-08-17T04:38:01;5.03;;;4.38;;
38529;SDS011;24301;54.332;48.386;2023-08-17T04:40:27;6.82;;;4.40;;
38529;SDS011;24301;54.332;48.386;2023-08-17T04:42:56;6.65;;;5.10;;
38529;SDS011;24301;54.332;48.386;2023-08-17T04:45:22;6.80;;;4.63;;
38529;SDS011;24301;54.332;48.386;2023-08-17T04:47:49;6.50;;;4.60;;
38529;SDS011;24301;54.332;48.386;2023-08-17T04:50:15;8.38;;;5.35;;
38529;SDS011;24301;54.332;48.386;2023-08-17T04:52:43;8.15;;;4.88;;
38529;SDS011;24301;54.332;48.386;2023-08-17T04:55:09;6.28;;;5.53;;
38529;SDS011;24301;54.332;48.386;2023-08-17T04:57:36;7.70;;;5.63;;
38529;SDS011;24301;54.332;48.386;2023-08-17T05:00:02;5.78;;;5.18;;
38529;SDS011;24301;54.332;48.386;2023-08-17T05:02:31;5.65;;;5.10;;
38529;SDS011;24301;54.332;48.386;2023-08-17T05:04:57;5.45;;;4.82;;
38529;SDS011;24301;54.332;48.386;2023-08-17T05:07:24;5.30;;;4.82;;
38529;SDS011;24301;54.332;48.386;2023-08-17T05:09:52;5.30;;;4.75;;
38529;SDS011;24301;54.332;48.386;2023-08-17T05:12:19;6.35;;;5.20;;
38529;SDS011;24301;54.332;48.386;2023-08-17T05:14:45;5.70;;;4.60;;
38529;SDS011;24301;54.332;48.386;2023-08-17T05:17:11;4.93;;;4.07;;
38529;SDS011;24301;54.332;48.386;2023-08-17T05:19:37;5.70;;;4.55;;
38529;SDS011;24301;54.332;48.386;2023-08-17T05:22:09;5.70;;;5.20;;
38529;SDS011;24301;54.332;48.386;2023-08-17T05:24:37;5.32;;;4.78;;
38529;SDS011;24301;54.332;48.386;2023-08-17T05:27:04;6.38;;;4.88;;
38529;SDS011;24301;54.332;48.386;2023-08-17T05:29:30;5.60;;;5.03;;
38529;SDS011;24301;54.332;48.386;2023-08-17T05:31:58;5.63;;;5.13;;
38529;SDS011;24301;54.332;48.386;2023-08-17T05:34:24;9.10;;;5.35;;
38529;SDS011;24301;54.332;48.386;2023-08-17T05:36:50;6.95;;;5.13;;
38529;SDS011;24301;54.332;48.386;2023-08-17T05:39:16;6.40;;;5.03;;
38529;SDS011;24301;54.332;48.386;2023-08-17T05:41:43;5.88;;;5.28;;
38529;SDS011;24301;54.332;48.386;2023-08-17T05:44:09;6.75;;;5.53;;
38529;SDS011;24301;54.332;48.386;2023-08-17T05:46:35;8.20;;;5.35;;
38529;SDS011;24301;54.332;48.386;2023-08-17T05:49:02;6.95;;;4.90;;
38529;SDS011;24301;54.332;48.386;2023-08-17T05:51:28;7.32;;;4.63;;
38529;SDS011;24301;54.332;48.386;2023-08-17T05:53:54;6.18;;;4.63;;
38529;SDS011;24301;54.332;48.386;2023-08-17T05:56:20;6.53;;;5.38;;
38529;SDS011;24301;54.332;48.386;2023-08-17T05:58:46;5.32;;;4.72;;
38529;SDS011;24301;54.332;48.386;2023-08-17T06:01:12;6.88;;;4.85;;
38529;SDS011;24301;54.332;48.386;2023-08-17T06:03:39;6.20;;;5.00;;
38529;SDS011;24301;54.332;48.386;2023-08-17T06:06:05;8.40;;;5.57;;
38529;SDS011;24301;54.332;48.386;2023-08-17T06:08:32;5.95;;;5.35;;
38529;SDS011;24301;54.332;48.386;2023-08-17T06:10:58;6.18;;;5.10;;
38529;SDS011;24301;54.332;48.386;2023-08-17T06:13:24;6.85;;;5.25;;
38529;SDS011;24301;54.332;48.386;2023-08-17T06:15:50;6.35;;;4.97;;
38529;SDS011;24301;54.332;48.386;2023-08-17T06:18:16;7.15;;;6.00;;
38529;SDS011;24301;54.332;48.386;2023-08-17T06:20:42;7.35;;;5.18;;
38529;SDS011;24301;54.332;48.386;2023-08-17T06:23:09;8.80;;;4.90;;
38529;SDS011;24301;54.332;48.386;2023-08-17T06:25:35;5.47;;;4.38;;
38529;SDS011;24301;54.332;48.386;2023-08-17T06:28:01;5.57;;;4.68;;
38529;SDS011;24301;54.332;48.386;2023-08-17T06:30:27;5.25;;;4.07;;
38529;SDS011;24301;54.332;48.386;2023-08-17T06:32:53;5.20;;;4.43;;
38529;SDS011;24301;54.332;48.386;2023-08-17T06:35:19;6.70;;;4.72;;
38529;SDS011;24301;54.332;48.386;2023-08-17T06:37:45;5.80;;;4.55;;
38529;SDS011;24301;54.332;48.386;2023-08-17T06:40:11;4.75;;;4.20;;
38529;SDS011;24301;54.332;48.386;2023-08-17T06:42:37;5.30;;;4.80;;
38529;SDS011;24301;54.332;48.386;2023-08-17T06:45:03;5.63;;;4.88;;
38529;SDS011;24301;54.332;48.386;2023-08-17T06:47:33;4.93;;;4.43;;
38529;SDS011;24301;54.332;48.386;2023-08-17T06:50:00;8.55;;;4.97;;
38529;SDS011;24301;54.332;48.386;2023-08-17T06:52:26;6.97;;;5.05;;
38529;SDS011;24301;54.332;48.386;2023-08-17T06:54:52;6.38;;;4.70;;
38529;SDS011;24301;54.332;48.386;2023-08-17T06:57:18;6.20;;;5.15;;
38529;SDS011;24301;54.332;48.386;2023-08-17T06:59:47;7.85;;;4.32;;
38529;SDS011;24301;54.332;48.386;2023-08-17T07:02:13;6.68;;;5.10;;
38529;SDS011;24301;54.332;48.386;2023-08-17T07:04:40;5.88;;;4.38;;
38529;SDS011;24301;54.332;48.386;2023-08-17T07:07:06;6.90;;;4.78;;
38529;SDS011;24301;54.332;48.386;2023-08-17T07:09:32;5.30;;;4.38;;
38529;SDS011;24301;54.332;48.386;2023-08-17T07:11:58;6.55;;;4.07;;
38529;SDS011;24301;54.332;48.386;2023-08-17T07:14:24;6.32;;;4.35;;
38529;SDS011;24301;54.332;48.386;2023-08-17T07:16:50;6.13;;;4.60;;
38529;SDS011;24301;54.332;48.386;2023-08-17T07:19:19;6.93;;;4.18;;
38529;SDS011;24301;54.332;48.386;2023-08-17T07:21:45;4.90;;;4.40;;
38529;SDS011;24301;54.332;48.386;2023-08-17T07:24:14;7.00;;;4.15;;
38529;SDS011;24301;54.332;48.386;2023-08-17T07:26:41;6.88;;;3.90;;
38529;SDS011;24301;54.332;48.386;2023-08-17T07:29:07;4.93;;;3.88;;
38529;SDS011;24301;54.332;48.386;2023-08-17T07:31:34;6.65;;;4.10;;
38529;SDS011;24301;54.332;48.386;2023-08-17T07:34:03;4.55;;;3.83;;
38529;SDS011;24301;54.332;48.386;2023-08-17T07:36:31;5.35;;;3.60;;
38529;SDS011;24301;54.332;48.386;2023-08-17T07:38:57;6.95;;;4.13;;
38529;SDS011;24301;54.332;48.386;2023-08-17T07:41:23;5.05;;;4.00;;
38529;SDS011;24301;54.332;48.386;2023-08-17T07:43:51;4.70;;;4.03;;
38529;SDS011;24301;54.332;48.386;2023-08-17T07:46:17;5.30;;;3.85;;
38529;SDS011;24301;54.332;48.386;2023-08-17T07:48:43;5.15;;;3.60;;
38529;SDS011;24301;54.332;48.386;2023-08-17T07:51:09;8.10;;;4.18;;
38529;SDS011;24301;54.332;48.386;2023-08-17T07:53:35;4.95;;;3.58;;
38529;SDS011;24301;54.332;48.386;2023-08-17T07:56:01;4.00;;;3.58;;
38529;SDS011;24301;54.332;48.386;2023-08-17T07:58:26;5.35;;;3.55;;
38529;SDS011;24301;54.332;48.386;2023-08-17T08:00:52;6.22;;;4.00;;
38529;SDS011;24301;54.332;48.386;2023-08-17T08:03:18;4.78;;;3.83;;
38529;SDS011;24301;54.332;48.386;2023-08-17T08:05:44;5.60;;;3.70;;
38529;SDS011;24301;54.332;48.386;2023-08-17T08:08:16;6.60;;;4.35;;
38529;SDS011;24301;54.332;48.386;2023-08-17T08:10:43;5.68;;;3.83;;
38529;SDS011;24301;54.332;48.386;2023-08-17T08:13:10;3.80;;;3.25;;
38529;SDS011;24301;54.332;48.386;2023-08-17T08:15:37;5.57;;;4.03;;
38529;SDS011;24301;54.332;48.386;2023-08-17T08:18:03;10.18;;;4.10;;
38529;SDS011;24301;54.332;48.386;2023-08-17T08:20:29;7.03;;;3.90;;
38529;SDS011;24301;54.332;48.386;2023-08-17T08:22:55;4.78;;;3.80;;
38529;SDS011;24301;54.332;48.386;2023-08-17T08:25:21;6.10;;;3.97;;
38529;SDS011;24301;54.332;48.386;2023-08-17T08:27:47;5.03;;;4.22;;
38529;SDS011;24301;54.332;48.386;2023-08-17T08:30:13;7.78;;;4.45;;
38529;SDS011;24301;54.332;48.386;2023-08-17T08:32:39;6.43;;;4.03;;
38529;SDS011;24301;54.332;48.386;2023-08-17T08:35:05;6.22;;;4.25;;
38529;SDS011;24301;54.332;48.386;2023-08-17T08:37:31;5.20;;;4.43;;
38529;SDS011;24301;54.332;48.386;2023-08-17T08:39:57;5.07;;;4.38;;
38529;SDS011;24301;54.332;48.386;2023-08-17T08:42:23;5.97;;;4.25;;
38529;SDS011;24301;54.332;48.386;2023-08-17T08:44:50;5.72;;;4.65;;
38529;SDS011;24301;54.332;48.386;2023-08-17T08:47:17;7.38;;;4.45;;
38529;SDS011;24301;54.332;48.386;2023-08-17T08:49:54;7.32;;;4.35;;
38529;SDS011;24301;54.332;48.386;2023-08-17T08:52:38;7.90;;;4.25;;
38529;SDS011;24301;54.332;48.386;2023-08-17T08:55:11;6.00;;;4.07;;
38529;SDS011;24301;54.332;48.386;2023-08-17T08:57:42;4.40;;;4.00;;
38529;SDS011;24301;54.332;48.386;2023-08-17T09:00:09;8.15;;;4.75;;
38529;SDS011;24301;54.332;48.386;2023-08-17T09:02:37;5.53;;;4.70;;
38529;SDS011;24301;54.332;48.386;2023-08-17T09:05:05;5.88;;;4.32;;
38529;SDS011;24301;54.332;48.386;2023-08-17T09:07:34;5.22;;;3.97;;
38529;SDS011;24301;54.332;48.386;2023-08-17T09:10:02;6.38;;;4.57;;
38529;SDS011;24301;54.332;48.386;2023-08-17T09:12:31;5.95;;;4.03;;
38529;SDS011;24301;54.332;48.386;2023-08-17T09:14:57;6.18;;;3.60;;
38529;SDS011;24301;54.332;48.386;2023-08-17T09:17:24;5.22;;;4.10;;
38529;SDS011;24301;54.332;48.386;2023-08-17T09:19:53;4.47;;;3.90;;
38529;SDS011;24301;54.332;48.386;2023-08-17T09:25:11;4.18;;;3.78;;
38529;SDS011;24301;54.332;48.386;2023-08-17T09:27:48;8.18;;;4.50;;
38529;SDS011;24301;54.332;48.386;2023-08-17T09:30:14;6.30;;;3.80;;
38529;SDS011;24301;54.332;48.386;2023-08-17T09:32:40;5.05;;;4.28;;
38529;SDS011;24301;54.332;48.386;2023-08-17T09:35:07;7.20;;;4.07;;
38529;SDS011;24301;54.332;48.386;2023-08-17T09:37:33;5.10;;;4.15;;
38529;SDS011;24301;54.332;48.386;2023-08-17T09:40:09;4.57;;;3.95;;
38529;SDS011;24301;54.332;48.386;2023-08-17T09:42:35;5.63;;;3.90;;
38529;SDS011;24301;54.332;48.386;2023-08-17T09:45:01;4.80;;;3.88;;
38529;SDS011;24301;54.332;48.386;2023-08-17T09:47:32;5.30;;;3.95;;
38529;SDS011;24301;54.332;48.386;2023-08-17T09:49:58;6.90;;;4.15;;
38529;SDS011;24301;54.332;48.386;2023-08-17T09:52:24;5.18;;;4.43;;
38529;SDS011;24301;54.332;48.386;2023-08-17T09:54:51;4.47;;;4.07;;
38529;SDS011;24301;54.332;48.386;2023-08-17T09:57:17;9.93;;;4.05;;
38529;SDS011;24301;54.332;48.386;2023-08-17T09:59:43;5.40;;;3.95;;
38529;SDS011;24301;54.332;48.386;2023-08-17T10:02:17;6.47;;;3.80;;
38529;SDS011;24301;54.332;48.386;2023-08-17T10:04:49;4.85;;;4.10;;
38529;SDS011;24301;54.332;48.386;2023-08-17T10:07:20;5.97;;;4.43;;
38529;SDS011;24301;54.332;48.386;2023-08-17T10:10:00;4.95;;;4.03;;
38529;SDS011;24301;54.332;48.386;2023-08-17T10:15:11;5.78;;;4.05;;
38529;SDS011;24301;54.332;48.386;2023-08-17T10:20:26;4.97;;;4.10;;
38529;SDS011;24301;54.332;48.386;2023-08-17T10:23:06;6.68;;;4.18;;
38529;SDS011;24301;54.332;48.386;2023-08-17T10:25:40;5.20;;;4.65;;
38529;SDS011;24301;54.332;48.386;2023-08-17T10:28:08;5.07;;;4.57;;
38529;SDS011;24301;54.332;48.386;2023-08-17T10:30:36;7.55;;;4.90;;
38529;SDS011;24301;54.332;48.386;2023-08-17T10:33:03;6.80;;;4.03;;
38529;SDS011;24301;54.332;48.386;2023-08-17T10:35:32;6.32;;;4.78;;
38529;SDS011;24301;54.332;48.386;2023-08-17T10:37:59;8.93;;;4.93;;
38529;SDS011;24301;54.332;48.386;2023-08-17T10:40:26;7.75;;;4.40;;
38529;SDS011;24301;54.332;48.386;2023-08-17T10:42:55;7.18;;;4.57;;
38529;SDS011;24301;54.332;48.386;2023-08-17T10:45:25;5.78;;;4.22;;
38529;SDS011;24301;54.332;48.386;2023-08-17T10:47:59;4.65;;;3.88;;
38529;SDS011;24301;54.332;48.386;2023-08-17T10:50:26;5.63;;;4.30;;
38529;SDS011;24301;54.332;48.386;2023-08-17T10:52:53;5.40;;;4.10;;
38529;SDS011;24301;54.332;48.386;2023-08-17T10:55:38;8.45;;;3.85;;
38529;SDS011;24301;54.332;48.386;2023-08-17T10:58:05;4.97;;;4.00;;
38529;SDS011;24301;54.332;48.386;2023-08-17T11:00:35;7.25;;;3.85;;
38529;SDS011;24301;54.332;48.386;2023-08-17T11:03:05;6.18;;;4.82;;
38529;SDS011;24301;54.332;48.386;2023-08-17T11:05:35;6.32;;;4.47;;
38529;SDS011;24301;54.332;48.386;2023-08-17T11:08:32;7.13;;;4.30;;
38529;SDS011;24301;54.332;48.386;2023-08-17T11:11:03;5.90;;;4.53;;
38529;SDS011;24301;54.332;48.386;2023-08-17T11:13:34;9.77;;;4.72;;
38529;SDS011;24301;54.332;48.386;2023-08-17T11:16:02;5.70;;;4.13;;
38529;SDS011;24301;54.332;48.386;2023-08-17T11:18:29;7.68;;;3.90;;
38529;SDS011;24301;54.332;48.386;2023-08-17T11:20:56;7.15;;;3.83;;
38529;SDS011;24301;54.332;48.386;2023-08-17T11:23:22;5.03;;;3.80;;
38529;SDS011;24301;54.332;48.386;2023-08-17T11:25:49;7.43;;;4.07;;
38529;SDS011;24301;54.332;48.386;2023-08-17T11:28:17;4.60;;;3.70;;
38529;SDS011;24301;54.332;48.386;2023-08-17T11:30:44;5.57;;;3.80;;
38529;SDS011;24301;54.332;48.386;2023-08-17T11:33:10;6.88;;;4.22;;
38529;SDS011;24301;54.332;48.386;2023-08-17T11:35:36;4.68;;;3.67;;
38529;SDS011;24301;54.332;48.386;2023-08-17T11:38:03;4.22;;;3.08;;
38529;SDS011;24301;54.332;48.386;2023-08-17T11:40:31;4.70;;;3.30;;
38529;SDS011;24301;54.332;48.386;2023-08-17T11:42:58;7.18;;;3.50;;
38529;SDS011;24301;54.332;48.386;2023-08-17T11:45:24;6.38;;;4.05;;
38529;SDS011;24301;54.332;48.386;2023-08-17T11:47:50;8.15;;;4.40;;
38529;SDS011;24301;54.332;48.386;2023-08-17T11:50:17;8.43;;;4.03;;
38529;SDS011;24301;54.332;48.386;2023-08-17T11:52:43;4.28;;;3.38;;
38529;SDS011;24301;54.332;48.386;2023-08-17T11:55:09;4.63;;;3.72;;
38529;SDS011;24301;54.332;48.386;2023-08-17T11:57:36;7.25;;;3.80;;
38529;SDS011;24301;54.332;48.386;2023-08-17T12:00:03;5.50;;;3.60;;
38529;SDS011;24301;54.332;48.386;2023-08-17T12:02:38;7.20;;;4.20;;
38529;SDS011;24301;54.332;48.386;2023-08-17T12:05:08;7.35;;;3.80;;
38529;SDS011;24301;54.332;48.386;2023-08-17T12:07:35;8.68;;;4.00;;
38529;SDS011;24301;54.332;48.386;2023-08-17T12:10:02;6.00;;;4.20;;
38529;SDS011;24301;54.332;48.386;2023-08-17T12:12:36;7.32;;;4.80;;
38529;SDS011;24301;54.332;48.386;2023-08-17T12:15:03;7.18;;;4.30;;
38529;SDS011;24301;54.332;48.386;2023-08-17T12:17:31;6.05;;;4.28;;
38529;SDS011;24301;54.332;48.386;2023-08-17T12:19:58;7.13;;;4.18;;
38529;SDS011;24301;54.332;48.386;2023-08-17T12:22:25;6.25;;;4.30;;
38529;SDS011;24301;54.332;48.386;2023-08-17T12:24:53;6.03;;;4.40;;
38529;SDS011;24301;54.332;48.386;2023-08-17T12:27:21;6.28;;;4.15;;
38529;SDS011;24301;54.332;48.386;2023-08-17T12:29:49;7.38;;;3.22;;
38529;SDS011;24301;54.332;48.386;2023-08-17T12:32:17;5.68;;;3.85;;
38529;SDS011;24301;54.332;48.386;2023-08-17T12:34:45;10.80;;;4.68;;
38529;SDS011;24301;54.332;48.386;2023-08-17T12:37:11;7.18;;;3.58;;
38529;SDS011;24301;54.332;48.386;2023-08-17T12:39:38;4.70;;;3.65;;
38529;SDS011;24301;54.332;48.386;2023-08-17T12:42:04;6.85;;;3.63;;
38529;SDS011;24301;54.332;48.386;2023-08-17T12:44:31;4.72;;;2.88;;
38529;SDS011;24301;54.332;48.386;2023-08-17T12:47:17;8.40;;;3.30;;
38529;SDS011;24301;54.332;48.386;2023-08-17T12:49:43;6.10;;;3.30;;
38529;SDS011;24301;54.332;48.386;2023-08-17T12:52:09;5.70;;;3.20;;
38529;SDS011;24301;54.332;48.386;2023-08-17T12:54:35;6.22;;;3.35;;
38529;SDS011;24301;54.332;48.386;2023-08-17T12:57:01;5.07;;;3.53;;
38529;SDS011;24301;54.332;48.386;2023-08-17T12:59:28;5.72;;;3.35;;
38529;SDS011;24301;54.332;48.386;2023-08-17T13:01:54;8.40;;;3.40;;
38529;SDS011;24301;54.332;48.386;2023-08-17T13:04:19;6.10;;;3.47;;
38529;SDS011;24301;54.332;48.386;2023-08-17T13:06:45;4.10;;;3.38;;
38529;SDS011;24301;54.332;48.386;2023-08-17T13:09:13;6.25;;;3.58;;
38529;SDS011;24301;54.332;48.386;2023-08-17T13:11:40;6.28;;;3.10;;
38529;SDS011;24301;54.332;48.386;2023-08-17T13:14:06;8.75;;;4.07;;
38529;SDS011;24301;54.332;48.386;2023-08-17T13:16:31;6.65;;;3.28;;
38529;SDS011;24301;54.332;48.386;2023-08-17T13:18:57;5.53;;;3.20;;
38529;SDS011;24301;54.332;48.386;2023-08-17T13:21:23;5.07;;;3.65;;
38529;SDS011;24301;54.332;48.386;2023-08-17T13:23:49;8.63;;;3.65;;
38529;SDS011;24301;54.332;48.386;2023-08-17T13:26:15;6.65;;;3.88;;
38529;SDS011;24301;54.332;48.386;2023-08-17T13:28:41;7.15;;;3.38;;
38529;SDS011;24301;54.332;48.386;2023-08-17T13:31:07;6.45;;;3.40;;
38529;SDS011;24301;54.332;48.386;2023-08-17T13:33:33;6.03;;;3.45;;
38529;SDS011;24301;54.332;48.386;2023-08-17T13:35:59;6.22;;;3.33;;
38529;SDS011;24301;54.332;48.386;2023-08-17T13:38:25;6.97;;;3.20;;
38529;SDS011;24301;54.332;48.386;2023-08-17T13:40:51;7.10;;;3.78;;
38529;SDS011;24301;54.332;48.386;2023-08-17T13:43:17;6.97;;;3.63;;
38529;SDS011;24301;54.332;48.386;2023-08-17T13:45:43;6.47;;;3.40;;
38529;SDS011;24301;54.332;48.386;2023-08-17T13:48:09;6.00;;;3.50;;
38529;SDS011;24301;54.332;48.386;2023-08-17T13:50:38;7.82;;;3.67;;
38529;SDS011;24301;54.332;48.386;2023-08-17T13:53:04;4.78;;;3.10;;
38529;SDS011;24301;54.332;48.386;2023-08-17T13:55:30;5.32;;;3.28;;
38529;SDS011;24301;54.332;48.386;2023-08-17T13:57:56;8.55;;;3.05;;
38529;SDS011;24301;54.332;48.386;2023-08-17T14:00:26;6.25;;;3.40;;
38529;SDS011;24301;54.332;48.386;2023-08-17T14:02:54;5.38;;;3.38;;
38529;SDS011;24301;54.332;48.386;2023-08-17T14:05:20;9.70;;;4.18;;
38529;SDS011;24301;54.332;48.386;2023-08-17T14:07:47;5.68;;;3.63;;
38529;SDS011;24301;54.332;48.386;2023-08-17T14:10:13;4.13;;;3.25;;
38529;SDS011;24301;54.332;48.386;2023-08-17T14:12:39;5.68;;;3.35;;
38529;SDS011;24301;54.332;48.386;2023-08-17T14:15:06;5.88;;;3.17;;
38529;SDS011;24301;54.332;48.386;2023-08-17T14:17:32;7.40;;;3.30;;
38529;SDS011;24301;54.332;48.386;2023-08-17T14:19:58;3.97;;;3.10;;
38529;SDS011;24301;54.332;48.386;2023-08-17T14:22:24;4.53;;;2.63;;
38529;SDS011;24301;54.332;48.386;2023-08-17T14:24:56;5.18;;;2.92;;
38529;SDS011;24301;54.332;48.386;2023-08-17T14:27:22;5.85;;;3.15;;
38529;SDS011;24301;54.332;48.386;2023-08-17T14:29:48;5.22;;;3.45;;
38529;SDS011;24301;54.332;48.386;2023-08-17T14:32:14;6.13;;;3.65;;
38529;SDS011;24301;54.332;48.386;2023-08-17T14:34:40;5.80;;;4.00;;
38529;SDS011;24301;54.332;48.386;2023-08-17T14:37:06;5.90;;;3.63;;
38529;SDS011;24301;54.332;48.386;2023-08-17T14:39:32;6.88;;;3.35;;
38529;SDS011;24301;54.332;48.386;2023-08-17T14:41:58;6.38;;;3.17;;